Time;durP1;ratioP1;P1;durP2;ratioP2;P2;SDS_P1;SDS_P2;PMS_P1;PMS_P2;Temp;Humidity;BMP_temperature;BMP_pressure;BME280_temperature;BME280_humidity;BME280_pressure;Samples;Min_cycle;Max_cycle;Signal;HPM_P1;HPM_P2
2022/10/05 00:01:48;;;;;;;13.52;7.35;;;10.10;99.90;;;;;;5045312;28;20044;-59
2022/10/05 00:04:20;;;;;;;15.65;7.00;;;10.10;99.90;;;;;;5047820;28;20483;-59
2022/10/05 00:06:55;;;;;;;14.98;7.18;;;10.00;99.90;;;;;;5045216;28;20033;-60
2022/10/05 00:09:21;;;;;;;15.05;7.90;;;9.90;99.90;;;;;;5043404;28;20376;-60
2022/10/05 00:11:48;;;;;;;16.52;8.07;;;9.90;99.90;;;;;;5047460;28;20040;-61
2022/10/05 00:14:24;;;;;;;14.73;8.40;;;9.80;99.90;;;;;;5047284;28;20021;-62
2022/10/05 00:16:50;;;;;;;25.63;8.50;;;9.90;99.90;;;;;;5048674;28;20048;-61
2022/10/05 00:19:32;;;;;;;17.23;8.23;;;9.90;99.90;;;;;;5046982;28;20454;-61
2022/10/05 00:22:11;;;;;;;27.50;8.65;;;9.90;99.90;;;;;;5042953;28;20025;-59
2022/10/05 00:24:37;;;;;;;15.20;7.47;;;9.90;99.90;;;;;;5042471;28;20021;-60
2022/10/05 00:27:22;;;;;;;24.60;7.95;;;9.90;99.90;;;;;;5047860;28;20368;-60
2022/10/05 00:29:50;;;;;;;16.02;7.30;;;9.90;99.90;;;;;;5046133;28;20123;-61
2022/10/05 00:32:16;;;;;;;15.77;6.65;;;9.90;99.90;;;;;;5048353;28;20110;-62
2022/10/05 00:34:42;;;;;;;15.55;7.18;;;9.90;99.90;;;;;;5044534;28;20064;-61
2022/10/05 00:37:08;;;;;;;18.15;7.20;;;9.90;99.90;;;;;;5040614;28;20029;-60
2022/10/05 00:39:37;;;;;;;15.98;7.57;;;9.90;99.90;;;;;;5047446;28;20090;-61
2022/10/05 00:42:25;;;;;;;14.25;7.28;;;9.90;99.90;;;;;;5045308;28;20114;-60
2022/10/05 00:45:06;;;;;;;16.45;7.38;;;9.90;99.90;;;;;;5044579;28;20025;-60
2022/10/05 00:47:53;;;;;;;18.90;7.35;;;9.90;99.90;;;;;;5047957;28;20120;-60
2022/10/05 00:50:42;;;;;;;14.93;6.25;;;9.90;99.90;;;;;;5044767;28;20033;-60
2022/10/05 00:53:17;;;;;;;17.95;7.57;;;9.90;99.90;;;;;;5045283;28;20566;-61
2022/10/05 00:56:02;;;;;;;14.25;7.13;;;9.80;99.90;;;;;;5048571;28;20048;-61
2022/10/05 00:59:16;;;;;;;18.85;7.50;;;9.70;99.90;;;;;;5052000;28;20394;-60
2022/10/05 01:02:05;;;;;;;16.05;6.95;;;9.70;99.90;;;;;;5046639;28;20033;-61
2022/10/05 01:04:46;;;;;;;17.70;7.07;;;9.70;99.90;;;;;;5050069;28;20025;-61
2022/10/05 01:07:12;;;;;;;11.50;6.43;;;9.60;99.90;;;;;;5045946;28;20025;-61
2022/10/05 01:10:01;;;;;;;13.20;6.38;;;9.70;99.90;;;;;;5041111;28;20047;-61
2022/10/05 01:12:36;;;;;;;15.63;6.75;;;9.70;99.90;;;;;;5046667;28;20028;-63
2022/10/05 01:15:09;;;;;;;17.05;7.85;;;9.60;99.90;;;;;;5051157;28;20025;-63
2022/10/05 01:17:53;;;;;;;21.07;7.17;;;9.70;99.90;;;;;;5016294;28;20543;-63
2022/10/05 01:20:29;;;;;;;12.25;6.15;;;9.70;99.90;;;;;;5046949;28;20292;-63
2022/10/05 01:23:12;;;;;;;17.27;7.10;;;9.70;99.90;;;;;;5045912;28;20099;-61
2022/10/05 01:26:21;;;;;;;12.32;6.68;;;9.70;99.90;;;;;;5046764;28;20443;-63
2022/10/05 01:28:55;;;;;;;19.83;7.53;;;9.80;99.90;;;;;;5031160;28;20037;-61
2022/10/05 01:31:27;;;;;;;;;;;9.80;99.90;;;;;;5050195;28;20055;-63
2022/10/05 01:34:07;;;;;;;11.98;6.30;;;9.80;99.90;;;;;;5051275;28;20006;-61
2022/10/05 01:37:10;;;;;;;19.25;6.95;;;9.80;99.90;;;;;;5033758;28;20074;-62
2022/10/05 01:39:59;;;;;;;13.02;6.90;;;9.90;99.90;;;;;;5049041;28;20441;-62
2022/10/05 01:42:57;;;;;;;13.25;7.15;;;9.90;99.90;;;;;;5047909;28;20044;-60
2022/10/05 01:45:57;;;;;;;11.95;6.30;;;9.90;99.90;;;;;;5046209;28;20640;-59
2022/10/05 01:48:38;;;;;;;15.43;7.40;;;9.90;99.90;;;;;;5046873;28;20025;-60
2022/10/05 01:51:06;;;;;;;14.95;6.90;;;9.90;99.90;;;;;;5048235;28;20075;-57
2022/10/05 01:53:32;;;;;;;14.88;7.75;;;9.90;99.90;;;;;;5044665;28;20033;-61
2022/10/05 01:56:18;;;;;;;13.38;7.72;;;9.80;99.90;;;;;;5048025;28;20021;-60
2022/10/05 01:59:07;;;;;;;19.70;8.00;;;9.90;99.90;;;;;;5023721;28;20025;-59
2022/10/05 02:01:41;;;;;;;17.02;7.60;;;9.80;99.90;;;;;;5045235;28;20021;-62
2022/10/05 02:04:14;;;;;;;14.40;6.93;;;9.90;99.90;;;;;;5046169;28;20475;-60
2022/10/05 02:06:44;;;;;;;17.13;8.15;;;9.90;99.90;;;;;;5050099;28;20027;-58
2022/10/05 02:09:16;;;;;;;17.83;7.10;;;9.80;99.90;;;;;;5045070;28;20024;-60
2022/10/05 02:11:46;;;;;;;18.60;8.13;;;9.80;99.90;;;;;;5047312;28;20504;-60
2022/10/05 02:14:15;;;;;;;13.90;7.68;;;9.80;99.90;;;;;;5047278;28;20395;-60
2022/10/05 02:16:42;;;;;;;15.73;7.53;;;9.80;99.90;;;;;;5049260;28;20380;-58
2022/10/05 02:19:20;;;;;;;16.83;7.97;;;9.80;99.90;;;;;;5045410;28;20060;-61
2022/10/05 02:22:13;;;;;;;15.88;8.50;;;9.80;99.90;;;;;;5046393;28;20025;-62
2022/10/05 02:25:00;;;;;;;31.95;7.95;;;9.80;99.90;;;;;;5042906;28;20036;-60
2022/10/05 02:27:46;;;;;;;19.17;7.90;;;9.80;99.90;;;;;;5045958;28;20036;-60
2022/10/05 02:30:12;;;;;;;21.85;8.43;;;9.80;99.90;;;;;;5045368;28;20431;-59
2022/10/05 02:32:48;;;;;;;21.15;8.55;;;9.70;99.90;;;;;;5048484;28;20021;-60
2022/10/05 02:35:17;;;;;;;20.15;9.00;;;9.80;99.90;;;;;;5046585;28;20029;-60
2022/10/05 02:37:53;;;;;;;18.75;8.48;;;9.70;99.90;;;;;;5050138;28;20033;-59
2022/10/05 02:40:36;;;;;;;19.95;8.73;;;9.70;99.90;;;;;;5042360;28;20753;-62
2022/10/05 02:43:11;;;;;;;15.15;7.57;;;9.60;99.90;;;;;;5031796;28;20056;-62
2022/10/05 02:45:45;;;;;;;20.88;7.57;;;9.60;99.90;;;;;;5045567;28;20112;-61
2022/10/05 02:48:41;;;;;;;19.60;7.65;;;9.60;99.90;;;;;;5029136;28;20043;-60
2022/10/05 02:51:26;;;;;;;19.88;8.60;;;9.60;99.90;;;;;;5048567;28;20033;-61
2022/10/05 02:54:16;;;;;;;15.98;8.02;;;9.60;99.90;;;;;;5047293;28;20051;-61
2022/10/05 02:57:20;;;;;;;13.73;8.07;;;9.60;99.90;;;;;;5046345;28;20029;-62
2022/10/05 03:00:12;;;;;;;22.42;8.70;;;9.60;99.90;;;;;;5046938;28;20036;-61
2022/10/05 03:02:43;;;;;;;21.08;8.13;;;9.60;99.90;;;;;;5046639;28;20043;-61
2022/10/05 03:05:30;;;;;;;22.45;8.48;;;9.50;99.90;;;;;;5049463;28;20021;-61
2022/10/05 03:08:25;;;;;;;18.98;8.50;;;9.50;99.90;;;;;;5061223;28;20083;-59
2022/10/05 03:11:03;;;;;;;19.77;7.80;;;9.50;99.90;;;;;;5042554;28;20027;-59
2022/10/05 03:13:47;;;;;;;16.95;8.02;;;9.60;99.90;;;;;;5047804;28;20037;-61
2022/10/05 03:16:31;;;;;;;16.85;7.50;;;9.60;99.90;;;;;;5045802;28;21496;-61
2022/10/05 03:19:00;;;;;;;17.63;7.80;;;9.50;99.90;;;;;;5041618;28;20112;-62
2022/10/05 03:21:47;;;;;;;16.33;7.18;;;9.40;99.90;;;;;;5046227;28;20025;-61
2022/10/05 03:24:40;;;;;;;21.42;7.90;;;9.40;99.90;;;;;;5044353;28;20670;-60
2022/10/05 03:27:43;;;;;;;15.73;8.10;;;9.30;99.90;;;;;;5042942;28;20021;-60
2022/10/05 03:30:21;;;;;;;20.10;7.90;;;9.40;99.90;;;;;;5044422;28;20036;-59
2022/10/05 03:33:28;;;;;;;13.93;7.22;;;9.40;99.90;;;;;;5042019;28;20048;-60
2022/10/05 03:36:03;;;;;;;16.63;7.85;;;9.50;99.90;;;;;;5035864;28;20037;-58
2022/10/05 03:38:52;;;;;;;;;;;9.50;99.90;;;;;;5040983;28;20022;-60
2022/10/05 03:41:27;;;;;;;19.10;8.68;;;9.50;99.90;;;;;;5041317;28;19991;-59
2022/10/05 03:44:33;;;;;;;17.95;8.98;;;9.60;99.90;;;;;;5027575;22;20054;-62
2022/10/05 03:47:04;;;;;;;32.17;9.93;;;9.70;99.90;;;;;;5003265;28;20034;-62
2022/10/05 03:50:23;;;;;;;16.92;7.78;;;9.70;99.90;;;;;;5002133;28;20532;-62
2022/10/05 03:52:58;;;;;;;18.27;8.48;;;9.80;99.90;;;;;;4933890;28;20573;-62
2022/10/05 03:55:56;;;;;;;18.23;9.00;;;9.80;99.90;;;;;;4973031;28;20038;-62
2022/10/05 03:58:57;;;;;;;23.70;7.95;;;9.90;99.90;;;;;;4943901;28;20042;-62
2022/10/05 04:01:40;;;;;;;17.45;9.27;;;9.90;99.90;;;;;;4971256;28;20073;-61
2022/10/05 04:04:12;;;;;;;24.17;9.30;;;10.00;99.90;;;;;;4985442;28;20437;-62
2022/10/05 04:06:45;;;;;;;24.55;9.13;;;10.00;99.90;;;;;;4983588;28;20141;-61
2022/10/05 04:09:18;;;;;;;21.25;8.25;;;10.00;99.90;;;;;;4985226;28;20046;-62
2022/10/05 04:11:46;;;;;;;18.55;9.30;;;10.00;99.90;;;;;;4986185;28;20045;-61
2022/10/05 04:14:24;;;;;;;19.10;9.73;;;10.00;99.90;;;;;;4986807;28;20488;-62
2022/10/05 04:17:00;;;;;;;23.50;9.82;;;10.10;99.90;;;;;;4983112;28;20480;-63
2022/10/05 04:19:53;;;;;;;20.08;8.95;;;10.10;99.90;;;;;;4984159;28;20058;-62
2022/10/05 04:22:24;;;;;;;20.48;9.13;;;10.10;99.90;;;;;;4985602;28;20030;-62
2022/10/05 04:25:01;;;;;;;21.13;9.93;;;10.10;99.90;;;;;;4976901;28;20607;-62
2022/10/05 04:27:38;;;;;;;23.00;11.15;;;10.10;99.90;;;;;;4984098;28;20491;-62
2022/10/05 04:30:12;;;;;;;25.55;9.55;;;10.20;99.90;;;;;;4989962;28;20026;-61
2022/10/05 04:32:46;;;;;;;16.75;9.65;;;10.20;99.90;;;;;;4986152;28;20026;-61
2022/10/05 04:35:19;;;;;;;16.67;10.30;;;10.20;99.90;;;;;;4984996;28;20034;-62
2022/10/05 04:37:44;;;;;;;22.00;10.25;;;10.30;99.90;;;;;;4987528;28;20031;-61
2022/10/05 04:40:39;;;;;;;18.30;9.45;;;10.30;99.90;;;;;;4986572;28;20033;-61
2022/10/05 04:43:12;;;;;;;;;;;10.30;99.90;;;;;;4979908;28;20042;-61
2022/10/05 04:45:55;;;;;;;18.27;8.18;;;10.40;99.90;;;;;;4984335;28;19913;-60
2022/10/05 04:48:54;;;;;;;19.70;9.48;;;10.40;99.90;;;;;;4983359;28;20022;-59
2022/10/05 04:51:23;;;;;;;19.42;10.15;;;10.50;99.90;;;;;;4984114;28;20114;-61
2022/10/05 04:53:52;;;;;;;18.42;9.65;;;10.60;99.90;;;;;;4982936;28;20038;-61
2022/10/05 04:56:27;;;;;;;21.60;11.18;;;10.60;99.90;;;;;;4986526;28;20030;-62
2022/10/05 04:58:55;;;;;;;20.38;9.68;;;10.70;99.90;;;;;;4979365;28;20040;-60
2022/10/05 05:01:42;;;;;;;25.40;9.85;;;10.80;99.90;;;;;;4982130;28;20030;-62
2022/10/05 05:04:35;;;;;;;22.88;9.75;;;10.90;99.90;;;;;;4984575;28;20033;-59
2022/10/05 05:07:18;;;;;;;21.60;10.73;;;11.00;99.90;;;;;;4982355;28;20034;-59
2022/10/05 05:09:44;;;;;;;23.65;10.88;;;11.00;99.90;;;;;;4980684;28;20505;-62
2022/10/05 05:12:09;;;;;;;19.45;9.90;;;11.10;99.90;;;;;;4984321;28;20056;-62
2022/10/05 05:14:38;;;;;;;17.02;9.77;;;11.10;99.90;;;;;;4983757;28;20427;-61
2022/10/05 05:17:21;;;;;;;18.83;10.55;;;11.10;99.90;;;;;;4980119;28;20303;-60
2022/10/05 05:20:02;;;;;;;16.95;8.25;;;11.10;99.90;;;;;;4968972;28;20019;-61
2022/10/05 05:22:46;;;;;;;17.13;8.75;;;11.10;99.90;;;;;;4967418;28;20069;-59
2022/10/05 05:25:17;;;;;;;16.65;9.52;;;11.10;99.90;;;;;;4986455;28;20038;-62
2022/10/05 05:28:17;;;;;;;15.68;9.13;;;11.00;99.90;;;;;;4982404;28;20030;-61
2022/10/05 05:30:53;;;;;;;16.40;9.10;;;11.00;99.90;;;;;;4976320;28;20037;-61
2022/10/05 05:33:53;;;;;;;13.98;8.05;;;11.00;99.90;;;;;;4980360;28;20033;-62
2022/10/05 05:36:47;;;;;;;21.00;8.88;;;10.90;99.90;;;;;;4954663;28;20045;-61
2022/10/05 05:39:35;;;;;;;14.77;8.30;;;10.90;99.90;;;;;;4981669;28;20392;-62
2022/10/05 05:42:28;;;;;;;19.90;9.05;;;10.90;99.90;;;;;;4980350;28;20022;-60
2022/10/05 05:44:58;;;;;;;15.65;8.52;;;10.90;99.90;;;;;;4976704;28;20031;-61
2022/10/05 05:47:34;;;;;;;14.05;8.10;;;10.90;99.90;;;;;;4989276;28;20105;-61
2022/10/05 05:50:23;;;;;;;14.82;8.15;;;10.90;99.90;;;;;;4993590;28;20029;-62
2022/10/05 05:52:54;;;;;;;19.30;9.52;;;10.90;99.90;;;;;;4985330;28;20053;-62
2022/10/05 05:55:26;;;;;;;19.33;9.20;;;10.90;99.90;;;;;;4982061;28;20045;-60
2022/10/05 05:58:10;;;;;;;16.80;9.65;;;10.90;99.90;;;;;;4985435;28;20033;-62
2022/10/05 06:00:48;;;;;;;21.83;9.55;;;11.00;99.90;;;;;;4982541;28;20026;-62
2022/10/05 06:03:21;;;;;;;13.60;8.48;;;11.00;99.90;;;;;;4984083;28;20301;-62
2022/10/05 06:05:51;;;;;;;15.98;8.90;;;11.10;99.90;;;;;;4982034;28;20025;-62
2022/10/05 06:08:57;;;;;;;21.77;9.23;;;11.10;99.90;;;;;;4978338;28;20484;-62
2022/10/05 06:11:25;;;;;;;;;;;11.20;99.90;;;;;;4921441;29;20036;-61
2022/10/05 06:13:52;;;;;;;14.07;8.43;;;11.20;99.90;;;;;;4923260;29;19918;-63
2022/10/05 06:16:24;;;;;;;15.38;9.55;;;11.30;99.90;;;;;;4948130;28;20077;-61
2022/10/05 06:19:13;;;;;;;19.60;11.27;;;11.40;99.90;;;;;;4984032;28;20034;-60
2022/10/05 06:22:25;;;;;;;18.35;8.43;;;11.50;99.90;;;;;;4980728;28;20045;-60
2022/10/05 06:25:13;;;;;;;20.90;9.80;;;11.60;99.90;;;;;;4968829;28;20049;-63
2022/10/05 06:28:08;;;;;;;15.30;9.18;;;11.70;99.90;;;;;;4989525;28;20105;-63
2022/10/05 06:30:40;;;;;;;;;;;11.80;99.90;;;;;;4981514;28;20019;-62
2022/10/05 06:33:42;;;;;;;14.18;8.23;;;11.90;99.90;;;;;;4991557;28;19987;-61
2022/10/05 06:36:40;;;;;;;29.05;9.48;;;12.00;99.90;;;;;;4981187;28;20465;-61
2022/10/05 06:39:21;;;;;;;13.70;8.30;;;12.10;99.90;;;;;;4984321;28;20042;-62
2022/10/05 06:42:07;;;;;;;15.55;7.60;;;12.20;99.90;;;;;;4982992;28;20030;-62
2022/10/05 06:44:33;;;;;;;19.45;7.55;;;12.30;99.90;;;;;;4983196;28;20026;-61
2022/10/05 06:47:01;;;;;;;13.73;8.93;;;12.40;99.90;;;;;;4977899;28;20030;-62
2022/10/05 06:49:44;;;;;;;14.57;7.38;;;12.50;99.90;;;;;;4984103;28;20030;-63
2022/10/05 06:52:34;;;;;;;16.83;7.07;;;12.50;99.90;;;;;;4983066;28;20031;-62
2022/10/05 06:55:17;;;;;;;15.70;7.82;;;12.60;99.90;;;;;;4960376;28;20118;-63
2022/10/05 06:57:58;;;;;;;14.60;7.63;;;12.70;99.90;;;;;;4979746;28;20034;-63
2022/10/05 07:00:33;;;;;;;12.63;7.43;;;12.80;99.90;;;;;;4973480;28;20560;-62
2022/10/05 07:03:40;;;;;;;16.08;7.70;;;12.90;99.90;;;;;;4982274;28;20133;-61
2022/10/05 07:06:22;;;;;;;16.90;6.90;;;13.00;99.90;;;;;;4983479;28;20068;-63
2022/10/05 07:08:57;;;;;;;11.93;6.95;;;13.00;99.90;;;;;;4982727;28;20022;-62
2022/10/05 07:11:37;;;;;;;11.27;6.70;;;13.10;99.90;;;;;;4985418;28;20033;-61
2022/10/05 07:14:08;;;;;;;13.35;7.22;;;13.20;99.90;;;;;;4979976;28;20026;-63
2022/10/05 07:17:03;;;;;;;15.50;6.82;;;13.20;99.90;;;;;;4980873;28;20042;-61
2022/10/05 07:19:56;;;;;;;24.52;7.63;;;13.30;99.90;;;;;;4980024;28;20041;-62
2022/10/05 07:22:44;;;;;;;15.82;7.13;;;13.40;99.90;;;;;;4980622;28;20026;-61
2022/10/05 07:25:20;;;;;;;21.02;7.22;;;13.40;99.90;;;;;;4984809;28;20031;-61
2022/10/05 07:27:56;;;;;;;11.02;6.78;;;13.50;99.90;;;;;;4983583;28;20080;-59
2022/10/05 07:30:22;;;;;;;11.25;6.57;;;13.50;99.90;;;;;;4981183;28;20037;-58
2022/10/05 07:33:09;;;;;;;10.85;6.82;;;13.60;99.90;;;;;;4984000;28;20022;-58
2022/10/05 07:38:44;;;;;;;17.75;7.60;;;13.70;99.90;;;;;;4980086;28;20230;-58
2022/10/05 07:41:22;;;;;;;12.70;7.65;;;13.80;99.90;;;;;;4998456;28;20499;-60
2022/10/05 07:44:03;;;;;;;16.08;7.00;;;13.80;99.90;;;;;;4974458;28;20046;-58
2022/10/05 07:46:57;;;;;;;14.20;7.40;;;13.80;99.90;;;;;;4979905;28;20038;-59
2022/10/05 07:49:52;;;;;;;13.65;7.10;;;13.90;99.90;;;;;;4982845;28;20582;-59
2022/10/05 07:52:32;;;;;;;14.07;7.65;;;14.00;99.90;;;;;;4976290;28;20034;-57
2022/10/05 07:55:18;;;;;;;11.65;6.80;;;14.00;99.90;;;;;;4990281;28;20029;-60
2022/10/05 07:58:20;;;;;;;20.45;7.65;;;14.10;99.90;;;;;;4980333;28;20045;-59
2022/10/05 08:01:12;;;;;;;11.52;5.85;;;14.10;99.90;;;;;;4983347;28;20038;-59
2022/10/05 08:04:12;;;;;;;13.52;7.05;;;14.10;99.90;;;;;;4993039;28;20047;-57
2022/10/05 08:06:42;;;;;;;18.80;6.97;;;14.20;99.90;;;;;;4983250;28;20040;-58
2022/10/05 08:09:30;;;;;;;30.35;8.10;;;14.20;99.90;;;;;;4982769;28;20101;-60
2022/10/05 08:12:14;;;;;;;13.43;6.75;;;14.20;99.90;;;;;;4971514;28;20035;-60
2022/10/05 08:14:59;;;;;;;13.35;6.63;;;14.30;99.90;;;;;;4971184;28;20030;-56
2022/10/05 08:18:00;;;;;;;13.75;7.03;;;14.40;99.90;;;;;;4977105;28;20113;-58
2022/10/05 08:20:55;;;;;;;15.52;7.38;;;14.40;99.90;;;;;;4984026;28;20040;-56
2022/10/05 08:23:38;;;;;;;12.77;6.22;;;14.50;99.90;;;;;;4981715;28;20023;-58
2022/10/05 08:26:15;;;;;;;14.57;7.10;;;14.60;99.90;;;;;;4981472;28;20396;-57
2022/10/05 08:29:12;;;;;;;19.23;8.27;;;14.60;99.90;;;;;;4975442;28;20022;-56
2022/10/05 08:31:41;;;;;;;12.45;6.68;;;14.70;99.90;;;;;;4978019;28;20081;-56
2022/10/05 08:34:25;;;;;;;12.45;6.70;;;14.80;99.90;;;;;;4982009;28;20029;-57
2022/10/05 08:37:07;;;;;;;17.38;8.00;;;14.80;99.90;;;;;;4984139;28;20035;-53
2022/10/05 08:39:59;;;;;;;13.20;6.22;;;14.90;99.90;;;;;;4981797;28;20026;-55
2022/10/05 08:42:37;;;;;;;12.88;6.65;;;15.00;99.90;;;;;;4975915;28;20065;-58
2022/10/05 08:45:32;;;;;;;13.00;7.45;;;15.10;99.90;;;;;;4985841;28;20025;-54
2022/10/05 08:48:15;;;;;;;;;;;15.10;99.90;;;;;;4955327;28;20030;-54
2022/10/05 08:51:05;;;;;;;11.52;5.90;;;15.30;99.90;;;;;;4981278;28;19910;-57
2022/10/05 08:53:36;;;;;;;14.30;7.25;;;15.40;99.90;;;;;;4974750;28;20093;-59
2022/10/05 08:56:39;;;;;;;20.13;7.07;;;15.40;99.90;;;;;;4976023;28;20026;-55
2022/10/05 08:59:05;;;;;;;15.40;7.63;;;15.50;99.90;;;;;;4979893;28;20030;-56
2022/10/05 09:01:45;;;;;;;12.38;7.20;;;15.60;99.90;;;;;;4980297;28;20552;-59
2022/10/05 09:04:32;;;;;;;22.85;6.63;;;15.70;99.90;;;;;;4974033;28;20211;-56
2022/10/05 09:07:08;;;;;;;9.38;5.75;;;15.80;99.90;;;;;;4975159;28;20057;-59
2022/10/05 09:09:48;;;;;;;14.82;5.72;;;15.90;99.90;;;;;;4983098;28;20101;-56
2022/10/05 09:12:33;;;;;;;15.52;6.43;;;16.00;99.90;;;;;;4988915;28;20113;-55
2022/10/05 09:15:01;;;;;;;10.48;5.90;;;16.10;99.90;;;;;;4977681;28;20030;-55
2022/10/05 09:18:09;;;;;;;10.40;4.80;;;16.20;99.90;;;;;;4979666;28;20038;-56
2022/10/05 09:20:54;;;;;;;9.05;4.72;;;16.30;99.90;;;;;;4984165;28;20082;-57
2022/10/05 09:23:43;;;;;;;14.00;5.68;;;16.40;99.90;;;;;;4983232;28;20033;-57
2022/10/05 09:26:41;;;;;;;6.85;4.35;;;16.50;99.90;;;;;;4981896;28;20429;-58
2022/10/05 09:29:39;;;;;;;9.57;3.97;;;16.60;99.90;;;;;;4992291;28;20032;-57
2022/10/05 09:32:22;;;;;;;7.00;4.30;;;16.80;99.90;;;;;;4989723;28;20125;-58
2022/10/05 09:35:23;;;;;;;6.55;4.47;;;16.80;99.90;;;;;;4987823;28;20030;-56
2022/10/05 09:38:07;;;;;;;9.25;4.20;;;16.80;99.90;;;;;;4974398;28;20042;-54
2022/10/05 09:41:10;;;;;;;6.93;4.10;;;16.90;99.90;;;;;;4984004;28;20404;-59
2022/10/05 09:43:54;;;;;;;6.63;3.72;;;16.90;99.90;;;;;;5015409;22;20053;-64
2022/10/05 09:46:41;;;;;;;4.68;3.40;;;17.00;99.90;;;;;;5023565;28;20026;-64
2022/10/05 09:49:13;;;;;;;7.57;3.42;;;17.00;99.90;;;;;;5021024;28;20490;-63
2022/10/05 09:51:58;;;;;;;6.05;3.83;;;17.20;99.90;;;;;;5017861;28;20025;-63
2022/10/05 09:55:19;;;;;;;5.85;3.25;;;17.30;99.90;;;;;;5020052;28;20022;-63
2022/10/05 09:57:47;;;;;;;6.65;3.38;;;17.40;99.90;;;;;;4972520;28;20160;-65
2022/10/05 10:00:46;;;;;;;4.15;2.70;;;17.50;99.90;;;;;;4969416;28;20031;-64
2022/10/05 10:03:14;;;;;;;7.47;3.20;;;17.50;99.90;;;;;;5004266;28;20060;-64
2022/10/05 10:06:09;;;;;;;4.30;2.80;;;17.60;99.90;;;;;;5012142;28;20022;-64
2022/10/05 10:08:35;;;;;;;;;;;17.70;99.90;;;;;;5010780;28;20476;-64
2022/10/05 10:11:00;;;;;;;7.30;3.22;;;17.80;99.90;;;;;;5010777;28;19912;-64
2022/10/05 10:13:44;;;;;;;6.57;3.47;;;17.80;99.90;;;;;;5011090;28;20028;-64
2022/10/05 10:16:32;;;;;;;6.18;4.32;;;17.90;99.90;;;;;;5009472;28;20033;-64
2022/10/05 10:19:07;;;;;;;5.78;3.20;;;17.90;99.90;;;;;;5012057;28;20026;-64
2022/10/05 10:22:22;;;;;;;10.20;3.80;;;18.10;99.90;;;;;;5018327;28;20018;-64
2022/10/05 10:25:10;;;;;;;7.20;3.05;;;18.30;99.90;;;;;;4928230;28;20475;-65
2022/10/05 10:27:57;;;;;;;12.18;3.80;;;18.50;99.90;;;;;;5005728;28;20030;-65
2022/10/05 10:30:35;;;;;;;4.78;3.28;;;18.50;99.90;;;;;;5012072;28;20025;-63
2022/10/05 10:33:30;;;;;;;7.82;3.17;;;18.50;99.90;;;;;;5011854;28;20033;-63
2022/10/05 10:36:14;;;;;;;6.85;3.10;;;18.70;99.90;;;;;;5006127;28;20399;-63
2022/10/05 10:39:03;;;;;;;5.43;2.38;;;18.70;99.90;;;;;;5010363;28;20029;-64
2022/10/05 10:42:13;;;;;;;4.78;2.60;;;18.70;99.90;;;;;;5010993;28;20116;-63
2022/10/05 10:44:46;;;;;;;4.47;2.00;;;18.70;99.90;;;;;;5009705;28;20033;-61
2022/10/05 10:47:59;;;;;;;3.67;2.70;;;18.80;99.90;;;;;;5012462;28;20026;-64
2022/10/05 10:50:39;;;;;;;3.35;2.63;;;19.00;99.90;;;;;;5009575;28;20104;-63
2022/10/05 10:53:39;;;;;;;4.03;2.33;;;19.10;99.90;;;;;;5011515;28;20125;-65
2022/10/05 10:56:42;;;;;;;5.60;2.95;;;19.30;99.90;;;;;;5008874;28;20033;-64
2022/10/05 10:59:41;;;;;;;3.65;2.28;;;19.30;99.90;;;;;;5006374;28;20044;-63
2022/10/05 11:02:37;;;;;;;5.50;2.30;;;19.40;99.90;;;;;;5010541;28;20049;-65
2022/10/05 11:05:02;;;;;;;2.85;2.20;;;19.60;99.90;;;;;;5011763;28;20121;-62
2022/10/05 11:07:55;;;;;;;3.15;1.90;;;20.00;99.90;;;;;;5015433;28;20707;-62
2022/10/05 11:10:45;;;;;;;1.60;1.35;;;20.00;99.90;;;;;;5011349;28;20052;-62
2022/10/05 11:13:36;;;;;;;6.05;1.38;;;20.10;99.90;;;;;;5005384;28;20032;-65
2022/10/05 11:16:21;;;;;;;5.75;1.30;;;20.20;99.90;;;;;;5010938;28;20030;-61
2022/10/05 11:19:01;;;;;;;7.75;1.10;;;20.40;99.90;;;;;;4984091;28;20123;-64
2022/10/05 11:21:57;;;;;;;4.70;1.02;;;20.60;99.90;;;;;;5009354;28;20022;-64
2022/10/05 11:24:37;;;;;;;2.05;1.27;;;20.80;99.90;;;;;;5014362;28;20105;-63
2022/10/05 11:27:24;;;;;;;1.52;1.10;;;20.90;99.90;;;;;;5004385;28;20021;-64
2022/10/05 11:30:02;;;;;;;2.42;1.40;;;21.10;99.90;;;;;;5009662;28;20080;-66
2022/10/05 11:32:30;;;;;;;1.08;0.93;;;21.20;99.90;;;;;;5016212;28;20036;-62
2022/10/05 11:35:14;;;;;;;1.63;1.10;;;21.40;99.90;;;;;;5011577;28;20030;-65
2022/10/05 11:37:49;;;;;;;2.72;1.08;;;21.40;99.90;;;;;;5009177;28;20032;-64
2022/10/05 11:40:33;;;;;;;1.15;1.00;;;21.60;99.90;;;;;;5014281;28;20026;-63
2022/10/05 11:43:16;;;;;;;3.58;1.50;;;22.00;99.90;;;;;;5010936;28;20026;-65
2022/10/05 11:45:59;;;;;;;1.92;1.15;;;22.00;99.90;;;;;;5006761;28;20042;-65
2022/10/05 11:48:39;;;;;;;1.85;1.20;;;22.10;99.90;;;;;;5009343;28;20506;-63
2022/10/05 11:51:10;;;;;;;4.25;1.20;;;22.10;99.90;;;;;;5004887;28;20033;-64
2022/10/05 11:53:46;;;;;;;1.10;1.00;;;22.10;99.90;;;;;;5004205;28;20049;-64
2022/10/05 11:56:34;;;;;;;3.53;0.90;;;22.20;99.90;;;;;;5010633;28;20017;-64
2022/10/05 11:59:49;;;;;;;4.78;2.47;;;22.40;99.90;;;;;;5017030;28;20076;-65
2022/10/05 12:02:56;;;;;;;6.53;1.10;;;22.50;99.90;;;;;;4994118;28;20030;-64
2022/10/05 12:05:24;;;;;;;3.95;0.90;;;22.80;99.90;;;;;;4985381;28;20572;-64
2022/10/05 12:08:31;;;;;;;3.40;0.95;;;22.70;99.90;;;;;;4978273;28;20038;-63
2022/10/05 12:11:10;;;;;;;1.45;1.00;;;23.00;99.90;;;;;;5000908;28;20096;-64
2022/10/05 12:14:06;;;;;;;1.77;1.00;;;23.20;99.90;;;;;;5019685;28;20029;-62
2022/10/05 12:16:37;;;;;;;1.40;1.13;;;23.40;99.90;;;;;;4990934;28;20053;-63
2022/10/05 12:19:16;;;;;;;1.10;1.00;;;23.40;99.90;;;;;;5010299;28;20028;-65
2022/10/05 12:22:02;;;;;;;6.50;1.38;;;23.50;99.90;;;;;;5010595;28;20021;-62
2022/10/05 12:24:34;;;;;;;1.05;0.82;;;23.60;99.90;;;;;;5009315;28;20069;-64
2022/10/05 12:27:19;;;;;;;5.40;1.30;;;23.60;99.90;;;;;;5009802;28;20176;-63
2022/10/05 12:30:05;;;;;;;4.13;1.10;;;23.50;99.90;;;;;;5010326;28;20484;-63
2022/10/05 12:32:45;;;;;;;2.30;1.33;;;23.50;99.90;;;;;;5010138;28;20129;-64
2022/10/05 12:35:26;;;;;;;7.57;1.33;;;23.60;99.90;;;;;;5010136;28;20056;-62
2022/10/05 12:38:03;;;;;;;1.95;1.30;;;23.40;99.90;;;;;;5009683;28;20021;-62
2022/10/05 12:40:57;;;;;;;4.80;1.23;;;23.60;99.90;;;;;;5008821;28;20045;-63
2022/10/05 12:43:39;;;;;;;2.38;1.20;;;23.70;99.90;;;;;;5005609;28;20034;-64
2022/10/05 12:46:33;;;;;;;4.32;1.13;;;23.60;99.90;;;;;;5009188;28;20034;-62
2022/10/05 12:49:17;;;;;;;6.15;1.13;;;23.80;99.90;;;;;;5004859;28;20101;-66
2022/10/05 12:51:45;;;;;;;2.00;1.07;;;23.60;99.90;;;;;;5020484;28;20030;-63
2022/10/05 12:54:43;;;;;;;3.65;1.20;;;23.40;99.90;;;;;;5016631;28;20079;-64
2022/10/05 12:57:42;;;;;;;1.40;1.05;;;23.70;99.90;;;;;;5010639;28;20018;-65
2022/10/05 13:00:11;;;;;;;1.80;0.82;;;23.60;99.90;;;;;;5013399;28;20133;-63
2022/10/05 13:02:47;;;;;;;2.38;1.10;;;23.50;99.90;;;;;;5012518;28;20276;-64
2022/10/05 13:05:25;;;;;;;3.53;0.98;;;23.70;99.90;;;;;;5013756;28;20568;-66
2022/10/05 13:08:23;;;;;;;5.80;1.10;;;23.80;99.90;;;;;;5012605;28;20101;-64
2022/10/05 13:10:53;;;;;;;3.50;1.00;;;23.60;99.90;;;;;;5012500;28;20029;-64
2022/10/05 13:13:54;;;;;;;1.48;1.10;;;23.90;99.90;;;;;;5011553;28;20025;-64
2022/10/05 13:16:31;;;;;;;1.70;0.95;;;24.00;99.90;;;;;;5012721;28;20022;-62
2022/10/05 13:19:03;;;;;;;2.50;1.08;;;23.80;99.90;;;;;;5010534;28;20109;-65
2022/10/05 13:21:46;;;;;;;2.30;1.15;;;23.90;99.90;;;;;;5013642;28;20025;-63
2022/10/05 13:24:44;;;;;;;2.47;1.08;;;23.90;99.90;;;;;;5012846;28;20105;-66
2022/10/05 13:27:38;;;;;;;5.20;1.25;;;24.00;99.90;;;;;;5001609;28;20394;-63
2022/10/05 13:30:13;;;;;;;3.08;1.00;;;24.10;99.90;;;;;;5013137;28;20080;-62
2022/10/05 13:32:41;;;;;;;;;;;24.10;99.90;;;;;;5013954;28;20410;-63
2022/10/05 13:35:42;;;;;;;1.80;0.90;;;24.00;99.90;;;;;;5012549;28;19912;-60
2022/10/05 13:38:22;;;;;;;5.10;1.48;;;23.80;99.90;;;;;;5015100;28;20021;-62
2022/10/05 13:41:05;;;;;;;1.15;1.00;;;23.90;99.90;;;;;;5011770;28;20038;-63
2022/10/05 13:43:30;;;;;;;1.65;1.10;;;24.00;99.90;;;;;;5012800;28;20075;-65
2022/10/05 13:46:19;;;;;;;1.40;0.98;;;23.90;99.90;;;;;;5012801;28;20096;-63
2022/10/05 13:49:22;;;;;;;2.42;1.20;;;23.90;99.90;;;;;;5011848;28;20404;-63
2022/10/05 13:51:57;;;;;;;1.10;0.95;;;24.00;99.90;;;;;;5010305;28;20065;-66
2022/10/05 13:54:41;;;;;;;2.08;1.30;;;23.70;99.90;;;;;;5010619;28;20024;-62
2022/10/05 13:57:20;;;;;;;4.68;1.05;;;23.70;99.90;;;;;;5013429;28;20484;-63
2022/10/05 13:59:52;;;;;;;2.13;1.10;;;23.50;99.90;;;;;;5010464;28;20068;-64
2022/10/05 14:02:30;;;;;;;6.30;1.25;;;23.40;99.90;;;;;;5012172;28;20682;-61
2022/10/05 14:05:01;;;;;;;5.35;1.10;;;23.40;99.90;;;;;;5010138;28;20022;-61
2022/10/05 14:07:35;;;;;;;1.02;0.93;;;23.20;99.90;;;;;;5008854;28;20049;-63
2022/10/05 14:10:05;;;;;;;2.10;1.08;;;23.20;99.90;;;;;;5011366;28;20442;-62